createdAt,value
2023-05-16T00:00:50.200Z,96038.44
2023-05-16T00:03:19.504Z,96033.81
2023-05-16T00:05:48.099Z,96044.13
2023-05-16T00:08:17.375Z,96042.50
2023-05-16T00:10:45.889Z,96042.50
2023-05-16T00:13:20.265Z,96006.00
2023-05-16T00:15:48.660Z,96022.34
2023-05-16T00:18:17.478Z,96001.94
2023-05-16T00:20:46.014Z,96035.69
2023-05-16T00:23:15.652Z,96035.97
2023-05-16T00:25:45.514Z,96037.03
2023-05-16T00:28:13.937Z,96039.22
2023-05-16T00:30:45.258Z,96041.09
2023-05-16T00:33:13.634Z,96032.13
2023-05-16T00:35:43.086Z,96040.25
2023-05-16T00:38:12.748Z,96033.16
2023-05-16T00:40:42.496Z,96027.72
2023-05-16T00:43:11.406Z,96022.28
2023-05-16T00:45:39.966Z,96026.09
2023-05-16T00:48:10.318Z,95999.13
2023-05-16T00:50:39.227Z,95999.41
2023-05-16T00:53:08.251Z,96016.84
2023-05-16T00:55:39.226Z,96020.66
2023-05-16T00:58:09.999Z,96022.28
2023-05-16T01:00:39.261Z,96015.22
2023-05-16T01:03:16.545Z,96009.78
2023-05-16T01:05:45.749Z,96010.88
2023-05-16T01:08:14.420Z,96015.22
2023-05-16T01:10:51.529Z,96008.16
2023-05-16T01:13:25.945Z,96013.06
2023-05-16T01:16:05.136Z,96013.06
2023-05-16T01:18:43.847Z,96013.06
2023-05-16T01:21:19.809Z,96008.44
2023-05-16T01:23:54.487Z,96019.84
2023-05-16T01:26:28.305Z,95998.06
2023-05-16T01:28:57.370Z,96010.06
2023-05-16T01:31:26.593Z,96010.34
2023-05-16T01:33:54.996Z,95994.53
2023-05-16T01:36:29.156Z,95999.47
2023-05-16T01:39:07.292Z,95989.66
2023-05-16T01:41:49.220Z,95994.28
2023-05-16T01:44:32.683Z,95985.81
2023-05-16T01:47:05.657Z,95991.56
2023-05-16T01:49:37.993Z,95993.47
2023-05-16T01:52:10.627Z,95992.38
2023-05-16T01:54:44.391Z,95976.31
2023-05-16T01:57:14.883Z,95987.22
2023-05-16T01:59:47.300Z,95989.94
2023-05-16T02:02:19.474Z,95991.81
2023-05-16T02:04:48.508Z,95992.66
2023-05-16T02:07:17.234Z,95993.44
2023-05-16T02:09:47.495Z,95998.59
2023-05-16T02:12:17.713Z,95999.69
2023-05-16T02:14:47.064Z,95998.88
2023-05-16T02:17:15.474Z,96001.59
2023-05-16T02:19:44.929Z,95999.69
2023-05-16T02:22:13.474Z,95996.97
2023-05-16T02:24:42.687Z,95995.63
2023-05-16T02:27:11.421Z,96001.59
2023-05-16T02:29:41.538Z,96006.47
2023-05-16T02:32:09.910Z,96008.38
2023-05-16T02:34:38.671Z,96006.47
2023-05-16T02:37:07.131Z,96005.13
2023-05-16T02:39:35.867Z,96004.56
2023-05-16T02:42:04.823Z,96004.84
2023-05-16T02:44:33.125Z,96005.13
2023-05-16T02:47:03.615Z,96011.91
2023-05-16T02:49:32.482Z,96011.31
2023-05-16T02:52:02.636Z,96016.19
2023-05-16T02:54:30.953Z,96015.63
2023-05-16T02:57:00.783Z,96014.53
2023-05-16T02:59:29.149Z,96015.06
2023-05-16T03:01:58.767Z,96020.78
2023-05-16T03:04:29.955Z,96012.38
2023-05-16T03:06:59.290Z,96018.34
2023-05-16T03:09:29.755Z,96015.88
2023-05-16T03:11:59.549Z,96013.97
2023-05-16T03:14:29.102Z,96015.88
2023-05-16T03:16:57.602Z,96017.22
2023-05-16T03:19:27.630Z,96015.06
2023-05-16T03:21:57.640Z,96012.91
2023-05-16T03:24:27.645Z,96012.91
2023-05-16T03:26:56.302Z,96018.34
2023-05-16T03:29:27.011Z,96009.06
2023-05-16T03:31:58.252Z,96011.22
2023-05-16T03:34:26.715Z,96012.59
2023-05-16T03:36:55.480Z,96019.94
2023-05-16T03:39:25.386Z,96014.50
2023-05-16T03:41:56.838Z,96021.03
2023-05-16T03:44:25.143Z,96025.31
2023-05-16T03:46:56.350Z,96023.16
2023-05-16T03:49:28.531Z,96011.19
2023-05-16T03:51:58.105Z,95996.75
2023-05-16T03:54:27.797Z,96014.44
2023-05-16T03:56:56.995Z,96014.16
2023-05-16T03:59:25.503Z,96009.53
2023-05-16T04:01:54.557Z,96006.81
2023-05-16T04:04:22.934Z,96013.59
2023-05-16T04:06:52.450Z,96014.16
2023-05-16T04:09:21.252Z,96007.38
2023-05-16T04:11:51.730Z,96016.66
2023-05-16T04:14:21.128Z,96013.94
2023-05-16T04:16:49.519Z,96007.69
2023-05-16T04:19:18.831Z,96012.59
2023-05-16T04:21:47.644Z,96012.34
2023-05-16T04:24:17.097Z,96011.50
2023-05-16T04:26:45.473Z,95999.81
2023-05-16T04:29:15.937Z,96010.69
2023-05-16T04:31:44.418Z,96002.56
2023-05-16T04:34:13.715Z,96010.44
2023-05-16T04:36:42.103Z,96007.47
2023-05-16T04:39:11.399Z,96004.72
2023-05-16T04:41:40.145Z,96014.22
2023-05-16T04:44:08.865Z,96019.94
2023-05-16T04:46:38.766Z,96023.19
2023-05-16T04:49:07.710Z,96021.06
2023-05-16T04:51:36.052Z,96029.75
2023-05-16T04:54:05.388Z,96027.03
2023-05-16T04:56:34.211Z,96029.22
2023-05-16T04:59:04.538Z,96027.06
2023-05-16T05:01:32.925Z,96023.25
2023-05-16T05:04:03.019Z,96018.91
2023-05-16T05:06:32.316Z,96020.00
2023-05-16T05:09:00.715Z,96025.97
2023-05-16T05:11:30.143Z,96022.19
2023-05-16T05:14:00.467Z,96019.19
2023-05-16T05:16:29.225Z,96012.38
2023-05-16T05:18:58.146Z,96010.25
2023-05-16T05:21:27.958Z,96009.97
2023-05-16T05:23:56.380Z,95998.81
2023-05-16T05:26:26.092Z,96012.41
2023-05-16T05:29:04.793Z,96013.22
2023-05-16T05:31:35.544Z,96012.13
2023-05-16T05:34:04.327Z,96007.28
2023-05-16T05:36:34.139Z,96010.00
2023-05-16T05:39:02.622Z,96014.59
2023-05-16T05:41:31.439Z,96020.59
2023-05-16T05:43:59.855Z,96016.78
2023-05-16T05:46:29.210Z,96011.09
2023-05-16T05:48:57.653Z,96009.19
2023-05-16T05:51:27.339Z,96014.06
2023-05-16T05:53:57.344Z,96016.53
2023-05-16T05:56:27.036Z,96011.91
2023-05-16T05:58:55.596Z,96009.47
2023-05-16T06:01:24.485Z,96003.25
2023-05-16T06:03:53.978Z,96010.94
2023-05-16T06:06:22.621Z,96011.47
2023-05-16T06:08:54.643Z,96007.66
2023-05-16T06:11:25.369Z,96010.13
2023-05-16T06:14:18.942Z,96011.75
2023-05-16T06:16:47.933Z,96017.44
2023-05-16T06:19:41.720Z,96020.47
2023-05-16T06:22:10.199Z,96019.66
2023-05-16T06:24:39.068Z,96022.34
2023-05-16T06:27:10.389Z,96016.38
2023-05-16T06:29:38.842Z,96014.50
2023-05-16T06:32:10.312Z,96009.28
2023-05-16T06:34:58.931Z,96013.66
2023-05-16T06:37:43.447Z,96015.56
2023-05-16T06:40:12.521Z,96020.47
2023-05-16T06:42:44.762Z,96016.91
2023-05-16T06:45:13.856Z,96012.78
2023-05-16T06:47:42.335Z,96020.69
2023-05-16T06:50:12.004Z,96023.38
2023-05-16T06:52:40.456Z,96027.72
2023-05-16T06:55:18.434Z,96025.28
2023-05-16T06:58:11.469Z,96028.00
2023-05-16T07:00:40.062Z,96035.91
2023-05-16T07:03:08.643Z,96040.50
2023-05-16T07:05:37.466Z,96034.16
2023-05-16T07:08:07.979Z,96040.41
2023-05-16T07:10:36.953Z,96025.13
2023-05-16T07:13:06.217Z,96023.44
2023-05-16T07:15:36.002Z,96022.31
2023-05-16T07:18:05.878Z,96011.66
2023-05-16T07:20:34.859Z,96038.25
2023-05-16T07:23:03.270Z,96030.00
2023-05-16T07:25:32.143Z,96038.44
2023-05-16T07:28:01.017Z,96025.03
2023-05-16T07:30:30.932Z,96032.66
2023-05-16T07:33:00.702Z,96024.44
2023-05-16T07:35:29.932Z,96029.09
2023-05-16T07:37:58.479Z,96023.88
2023-05-16T07:40:29.322Z,96031.56
2023-05-16T07:42:57.731Z,96035.91
2023-05-16T07:45:27.991Z,96042.75
2023-05-16T07:47:56.585Z,96041.66
2023-05-16T07:50:27.158Z,96041.38
2023-05-16T07:52:55.598Z,96045.75
2023-05-16T07:55:24.667Z,96050.94
2023-05-16T07:57:53.200Z,96054.72
2023-05-16T08:00:22.874Z,96054.97
2023-05-16T08:02:52.467Z,96051.66
2023-05-16T08:05:20.928Z,96053.59
2023-05-16T08:07:51.688Z,96059.53
2023-05-16T08:10:21.193Z,96047.78
2023-05-16T08:12:50.544Z,96059.94
2023-05-16T08:15:19.458Z,96055.03
2023-05-16T08:17:52.088Z,96056.34
2023-05-16T08:20:21.054Z,96058.50
2023-05-16T08:22:51.291Z,96052.75
2023-05-16T08:25:20.790Z,96043.69
2023-05-16T08:27:51.062Z,96049.13
2023-05-16T08:30:20.854Z,96041.44
2023-05-16T08:32:49.307Z,96054.25
2023-05-16T08:35:18.265Z,96060.75
2023-05-16T08:37:46.641Z,96054.94
2023-05-16T08:40:17.612Z,96059.78
2023-05-16T08:42:46.028Z,96048.00
2023-05-16T08:45:16.017Z,96060.56
2023-05-16T08:47:46.465Z,96063.59
2023-05-16T08:50:16.921Z,96052.22
2023-05-16T08:54:06.844Z,96064.75
2023-05-16T08:56:38.967Z,96063.16
2023-05-16T08:59:08.411Z,96058.31
2023-05-16T09:01:38.028Z,96046.59
2023-05-16T09:04:11.662Z,96063.50
2023-05-16T09:06:40.188Z,96065.63
2023-05-16T09:09:12.900Z,96064.81
2023-05-16T09:11:43.878Z,96067.03
2023-05-16T09:14:12.376Z,96064.59
2023-05-16T09:16:41.543Z,96053.69
2023-05-16T09:19:14.294Z,96050.75
2023-05-16T09:21:43.168Z,96049.34
2023-05-16T09:24:11.942Z,96041.25
2023-05-16T09:26:41.764Z,96047.00
2023-05-16T09:29:16.272Z,96044.66
2023-05-16T09:31:44.793Z,96050.50
2023-05-16T09:34:13.346Z,96045.47
2023-05-16T09:36:43.758Z,96048.25
2023-05-16T09:39:16.650Z,96038.88
2023-05-16T09:41:46.853Z,96058.72
2023-05-16T09:44:15.439Z,96059.84
2023-05-16T09:46:50.638Z,96057.31
2023-05-16T09:49:19.289Z,96034.28
2023-05-16T09:51:48.847Z,96050.78
2023-05-16T09:54:17.322Z,96048.00
2023-05-16T09:56:53.237Z,96051.84
2023-05-16T09:59:22.990Z,96038.50
2023-05-16T10:01:52.122Z,96037.44
2023-05-16T10:04:21.029Z,96042.63
2023-05-16T10:06:52.277Z,96041.75
2023-05-16T10:09:22.412Z,96037.72
2023-05-16T10:11:52.675Z,96025.63
2023-05-16T10:14:24.290Z,96034.81
2023-05-16T10:16:53.917Z,96032.47
2023-05-16T10:19:24.354Z,96035.50
2023-05-16T10:22:00.111Z,96046.03
2023-05-16T10:24:34.062Z,96040.53
2023-05-16T10:27:04.641Z,96043.19
2023-05-16T10:29:46.569Z,96048.78
2023-05-16T10:32:25.523Z,96038.19
2023-05-16T10:34:55.689Z,96040.63
2023-05-16T10:37:25.840Z,96053.94
2023-05-16T10:39:54.719Z,96044.09
2023-05-16T10:42:23.642Z,96051.50
2023-05-16T10:45:04.799Z,96048.53
2023-05-16T10:47:35.596Z,96040.78
2023-05-16T10:50:04.302Z,96049.34
2023-05-16T10:52:35.532Z,96052.19
2023-05-16T10:55:05.623Z,96042.97
2023-05-16T10:57:34.920Z,96047.31
2023-05-16T11:00:23.254Z,96040.22
2023-05-16T11:02:52.161Z,96042.66
2023-05-16T11:05:21.039Z,96041.53
2023-05-16T11:08:05.771Z,96041.84
2023-05-16T11:10:34.395Z,96039.41
2023-05-16T11:13:09.902Z,96042.47
2023-05-16T11:15:39.689Z,96045.88
2023-05-16T11:18:11.109Z,96038.66
2023-05-16T11:20:41.851Z,96028.31
2023-05-16T11:23:21.717Z,96038.56
2023-05-16T11:25:54.446Z,96033.25
2023-05-16T11:28:25.007Z,96035.50
2023-05-16T11:30:58.335Z,96034.88
2023-05-16T11:33:28.255Z,96032.13
2023-05-16T11:38:40.496Z,96031.13
2023-05-16T11:41:12.876Z,96032.53
2023-05-16T11:43:42.760Z,96031.25
2023-05-16T11:46:14.502Z,96027.47
2023-05-16T11:48:48.843Z,96024.03
2023-05-16T11:51:20.521Z,96032.88
2023-05-16T11:53:50.835Z,96038.59
2023-05-16T11:56:19.571Z,96045.50
2023-05-16T11:58:49.595Z,96046.44
2023-05-16T12:01:19.632Z,96055.22
2023-05-16T12:03:56.101Z,96054.06
2023-05-16T12:06:26.034Z,96055.59
2023-05-16T12:08:54.478Z,96058.66
2023-05-16T12:11:25.201Z,96056.97
2023-05-16T12:14:01.761Z,96059.16
2023-05-16T12:16:35.560Z,96062.41
2023-05-16T12:19:05.086Z,96067.41
2023-05-16T12:21:33.970Z,96060.84
2023-05-16T12:24:02.945Z,96065.03
2023-05-16T12:26:33.505Z,96074.19
2023-05-16T12:29:05.545Z,96064.75
2023-05-16T12:31:38.065Z,96064.63
2023-05-16T12:34:16.689Z,96062.22
2023-05-16T12:36:45.564Z,96066.69
2023-05-16T12:39:15.816Z,96057.16
2023-05-16T12:41:44.359Z,96065.44
2023-05-16T12:44:14.889Z,96071.53
2023-05-16T12:46:51.799Z,96061.22
2023-05-16T12:49:22.000Z,96070.25
2023-05-16T12:51:52.927Z,96068.66
2023-05-16T12:54:22.860Z,96068.13
2023-05-16T12:56:51.935Z,96072.00
2023-05-16T12:59:20.624Z,96074.81
2023-05-16T13:01:50.921Z,96085.22
2023-05-16T13:04:20.495Z,96081.72
2023-05-16T13:06:59.186Z,96088.84
2023-05-16T13:09:31.318Z,96083.72
2023-05-16T13:12:01.849Z,96090.00
2023-05-16T13:14:30.488Z,96105.59
2023-05-16T13:17:00.256Z,96095.00
2023-05-16T13:19:31.764Z,96100.22
2023-05-16T13:22:00.269Z,96085.56
2023-05-16T13:24:29.199Z,96099.44
2023-05-16T13:26:58.120Z,96091.28
2023-05-16T13:29:27.514Z,96106.00
2023-05-16T13:31:56.227Z,96110.16
2023-05-16T13:34:26.748Z,96093.03
2023-05-16T13:36:55.239Z,96104.22
2023-05-16T13:39:24.542Z,96099.03
2023-05-16T13:41:53.556Z,96105.59
2023-05-16T13:44:22.843Z,96106.72
2023-05-16T13:46:52.901Z,96098.00
2023-05-16T13:49:22.258Z,96094.16
2023-05-16T13:51:53.078Z,96098.84
2023-05-16T13:54:21.883Z,96090.38
2023-05-16T13:56:52.089Z,96083.06
2023-05-16T13:59:37.371Z,96093.16
2023-05-16T14:02:09.393Z,96088.78
2023-05-16T14:04:38.286Z,96088.22
2023-05-16T14:07:08.224Z,96083.34
2023-05-16T14:09:39.371Z,96095.06
2023-05-16T14:12:08.495Z,96094.50
2023-05-16T14:14:37.544Z,96085.50
2023-05-16T14:17:07.525Z,96099.09
2023-05-16T14:19:37.411Z,96096.66
2023-05-16T14:22:06.295Z,96099.38
2023-05-16T14:24:36.482Z,96098.53
2023-05-16T14:27:05.100Z,96102.06
2023-05-16T14:29:34.474Z,96101.78
2023-05-16T14:32:03.407Z,96107.50
2023-05-16T14:34:31.817Z,96103.16
2023-05-16T14:37:02.238Z,96105.88
2023-05-16T14:39:30.632Z,96106.69
2023-05-16T14:42:01.467Z,96113.78
2023-05-16T14:44:29.888Z,96118.97
2023-05-16T14:46:59.186Z,96115.41
2023-05-16T14:49:27.755Z,96116.81
2023-05-16T14:51:57.180Z,96125.25
2023-05-16T14:54:26.258Z,96130.44
2023-05-16T14:56:55.667Z,96124.16
2023-05-16T14:59:27.000Z,96124.69
2023-05-16T15:01:55.478Z,96128.81
2023-05-16T15:04:24.183Z,96124.69
2023-05-16T15:06:52.582Z,96131.78
2023-05-16T15:09:21.952Z,96117.03
2023-05-16T15:11:50.304Z,96134.25
2023-05-16T15:14:19.869Z,96131.50
2023-05-16T15:16:49.703Z,96134.75
2023-05-16T15:19:19.225Z,96115.69
2023-05-16T15:21:47.739Z,96138.31
2023-05-16T15:24:18.041Z,96138.88
2023-05-16T15:26:47.306Z,96136.69
2023-05-16T15:29:15.883Z,96138.88
2023-05-16T15:31:44.760Z,96148.13
2023-05-16T15:34:14.792Z,96142.13
2023-05-16T15:36:43.166Z,96139.94
2023-05-16T15:39:12.303Z,96142.66
2023-05-16T15:42:01.194Z,96146.75
2023-05-16T15:44:31.149Z,96138.88
2023-05-16T15:46:59.625Z,96140.50
2023-05-16T15:49:29.828Z,96144.34
2023-05-16T15:51:58.428Z,96145.97
2023-05-16T15:54:28.439Z,96149.00
2023-05-16T15:56:58.079Z,96149.00
2023-05-16T15:59:27.123Z,96134.25
2023-05-16T16:01:55.980Z,96148.72
2023-05-16T16:04:24.876Z,96154.41
2023-05-16T16:06:55.192Z,96145.69
2023-05-16T16:09:23.717Z,96149.56
2023-05-16T16:11:56.201Z,96159.09
2023-05-16T16:14:25.371Z,96153.94
2023-05-16T16:16:55.434Z,96155.84
2023-05-16T16:19:24.149Z,96149.88
2023-05-16T16:21:55.098Z,96158.31
2023-05-16T16:24:23.680Z,96162.66
2023-05-16T16:26:52.861Z,96165.41
2023-05-16T16:29:21.446Z,96167.31
2023-05-16T16:31:50.168Z,96177.16
2023-05-16T16:34:20.353Z,96177.13
2023-05-16T16:36:50.754Z,96163.50
2023-05-16T16:39:21.152Z,96174.13
2023-05-16T16:41:50.272Z,96177.13
2023-05-16T16:44:20.051Z,96191.31
2023-05-16T16:46:49.852Z,96188.31
2023-05-16T16:49:19.128Z,96190.50
2023-05-16T16:51:50.387Z,96198.94
2023-05-16T16:54:18.973Z,96205.22
2023-05-16T16:56:49.947Z,96193.47
2023-05-16T16:59:18.846Z,96212.03
2023-05-16T17:01:47.963Z,96210.94
2023-05-16T17:04:16.373Z,96209.84
2023-05-16T17:06:47.795Z,96219.69
2023-05-16T17:09:18.406Z,96215.84
2023-05-16T17:11:49.190Z,96214.22
2023-05-16T17:14:18.069Z,96223.75
2023-05-16T17:16:46.703Z,96233.03
2023-05-16T17:19:16.418Z,96229.47
2023-05-16T17:21:45.076Z,96228.09
2023-05-16T17:24:14.453Z,96228.94
2023-05-16T17:26:42.971Z,96233.25
2023-05-16T17:29:13.546Z,96232.44
2023-05-16T17:31:42.108Z,96243.34
2023-05-16T17:34:10.507Z,96245.78
2023-05-16T17:36:39.310Z,96232.69
2023-05-16T17:39:08.363Z,96235.66
2023-05-16T17:41:36.831Z,96225.56
2023-05-16T17:44:06.907Z,96231.56
2023-05-16T17:46:38.705Z,96223.63
2023-05-16T17:49:08.061Z,96236.72
2023-05-16T17:51:55.824Z,96241.09
2023-05-16T17:54:24.486Z,96232.06
2023-05-16T17:56:55.166Z,96174.44
2023-05-16T17:59:23.623Z,96205.00
2023-05-16T18:01:54.289Z,96236.13
2023-05-16T18:04:23.724Z,96242.41
2023-05-16T18:06:53.780Z,96241.56
2023-05-16T18:09:22.661Z,96249.41
2023-05-16T18:11:51.481Z,96245.53
2023-05-16T18:14:21.493Z,96254.53
2023-05-16T18:16:49.916Z,96258.06
2023-05-16T18:19:20.376Z,96249.59
2023-05-16T18:21:49.590Z,96252.28
2023-05-16T18:24:18.414Z,96262.88
2023-05-16T18:26:48.762Z,96271.59
2023-05-16T18:29:17.171Z,96265.84
2023-05-16T18:31:46.618Z,96264.47
2023-05-16T18:34:15.026Z,96267.16
2023-05-16T18:36:45.444Z,96282.44
2023-05-16T18:39:13.803Z,96266.06
2023-05-16T18:41:46.966Z,96281.59
2023-05-16T18:44:17.274Z,96284.78
2023-05-16T18:46:47.064Z,96285.84
2023-05-16T18:49:15.755Z,96279.00
2023-05-16T18:51:45.888Z,96289.09
2023-05-16T18:54:14.296Z,96294.28
2023-05-16T18:56:43.946Z,96298.34
2023-05-16T18:59:12.417Z,96311.91
2023-05-16T19:01:41.409Z,96314.84
2023-05-16T19:04:09.992Z,96304.72
2023-05-16T19:06:38.932Z,96316.69
2023-05-16T19:09:09.484Z,96312.59
2023-05-16T19:11:37.973Z,96323.97
2023-05-16T19:14:07.955Z,96337.81
2023-05-16T19:16:36.389Z,96248.38
2023-05-16T19:19:07.830Z,96337.50
2023-05-16T19:21:36.558Z,96337.44
2023-05-16T19:24:05.354Z,96338.22
2023-05-16T19:26:35.155Z,96333.25
2023-05-16T19:29:04.044Z,96311.91
2023-05-16T19:31:33.386Z,96335.94
2023-05-16T19:34:01.910Z,96326.25
2023-05-16T19:36:31.423Z,96358.16
2023-05-16T19:39:00.138Z,96351.56
2023-05-16T19:41:29.430Z,96363.25
2023-05-16T19:43:59.620Z,96347.88
2023-05-16T19:46:28.009Z,96370.03
2023-05-16T19:48:57.056Z,96364.22
2023-05-16T19:54:15.021Z,96380.56
2023-05-16T19:56:43.489Z,96373.22
2023-05-16T19:59:13.665Z,96364.19
2023-05-16T20:01:42.154Z,96378.88
2023-05-16T20:04:11.984Z,96315.34
2023-05-16T20:06:41.027Z,96365.75
2023-05-16T20:09:11.123Z,96367.72
2023-05-16T20:11:40.003Z,96378.31
2023-05-16T20:14:09.368Z,96362.97
2023-05-16T20:16:39.513Z,96378.50
2023-05-16T20:19:09.589Z,96364.22
2023-05-16T20:21:38.120Z,96379.22
2023-05-16T20:24:07.466Z,96374.28
2023-05-16T20:26:36.367Z,96355.09
2023-05-16T20:29:04.816Z,96339.50
2023-05-16T20:31:33.716Z,96379.97
2023-05-16T20:34:03.538Z,96374.78
2023-05-16T20:36:32.323Z,96382.38
2023-05-16T20:39:00.888Z,96373.09
2023-05-16T20:41:30.110Z,96383.38
2023-05-16T20:43:58.669Z,96381.50
2023-05-16T20:46:28.146Z,96375.72
2023-05-16T20:48:56.714Z,96389.94
2023-05-16T20:51:27.030Z,96380.66
2023-05-16T20:53:56.333Z,96394.72
2023-05-16T20:56:24.964Z,96402.88
2023-05-16T20:58:53.436Z,96397.22
2023-05-16T21:01:22.026Z,96390.91
2023-05-16T21:03:50.530Z,96402.31
2023-05-16T21:06:18.954Z,96385.91
2023-05-16T21:08:50.492Z,96391.72
2023-05-16T21:11:18.907Z,96391.38
2023-05-16T21:13:48.273Z,96381.47
2023-05-16T21:16:17.105Z,96389.94
2023-05-16T21:18:45.909Z,96392.81
2023-05-16T21:21:14.947Z,96404.66
2023-05-16T21:23:43.631Z,96403.50
2023-05-16T21:26:14.267Z,96413.88
2023-05-16T21:28:54.470Z,96411.41
2023-05-16T21:31:25.258Z,96419.31
2023-05-16T21:33:53.854Z,96418.47
2023-05-16T21:36:23.348Z,96416.75
2023-05-16T21:38:51.847Z,96427.88
2023-05-16T21:41:23.650Z,96427.28
2023-05-16T21:43:53.402Z,96416.19
2023-05-16T21:46:22.487Z,96428.69
2023-05-16T21:48:52.165Z,96417.50
2023-05-16T21:51:20.790Z,96425.91
2023-05-16T21:53:50.185Z,96431.84
2023-05-16T21:56:19.453Z,96438.91
2023-05-16T21:58:50.559Z,96435.28
2023-05-16T22:01:20.176Z,96437.19
2023-05-16T22:03:50.007Z,96439.81
2023-05-16T22:06:19.303Z,96443.34
2023-05-16T22:08:47.988Z,96445.25
2023-05-16T22:11:18.191Z,96446.97
2023-05-16T22:13:47.558Z,96443.09
2023-05-16T22:16:17.434Z,96457.31
2023-05-16T22:18:46.623Z,96454.59
2023-05-16T22:21:16.203Z,96455.66
2023-05-16T22:23:45.512Z,96449.59
2023-05-16T22:26:14.489Z,96440.22
2023-05-16T22:28:43.267Z,96471.31
2023-05-16T22:31:11.668Z,96465.56
2023-05-16T22:33:42.453Z,96476.72
2023-05-16T22:36:11.101Z,96475.66
2023-05-16T22:38:40.117Z,96480.25
2023-05-16T22:41:08.662Z,96470.47
2023-05-16T22:43:37.057Z,96480.88
2023-05-16T22:46:05.909Z,96483.56
2023-05-16T22:48:34.585Z,96478.63
2023-05-16T22:51:05.337Z,96482.16
2023-05-16T22:53:33.710Z,96483.22
2023-05-16T22:56:02.546Z,96492.78
2023-05-16T22:58:31.192Z,96493.00
2023-05-16T23:01:02.359Z,96489.47
2023-05-16T23:03:31.271Z,96495.16
2023-05-16T23:05:59.722Z,96502.13
2023-05-16T23:08:30.437Z,96502.13
2023-05-16T23:10:58.790Z,96499.94
2023-05-16T23:13:27.688Z,96491.69
2023-05-16T23:15:56.226Z,96501.25
2023-05-16T23:18:25.233Z,96498.78
2023-05-16T23:20:53.738Z,96507.50
2023-05-16T23:23:23.158Z,96503.47
2023-05-16T23:25:53.411Z,96510.78
2023-05-16T23:28:21.896Z,96514.56
2023-05-16T23:30:51.442Z,96515.91
2023-05-16T23:33:20.085Z,96519.66
2023-05-16T23:35:48.560Z,96523.94
2023-05-16T23:38:18.214Z,96520.66
2023-05-16T23:40:47.720Z,96526.91
2023-05-16T23:43:17.770Z,96521.94
2023-05-16T23:45:47.172Z,96536.13
2023-05-16T23:48:16.301Z,96529.00
2023-05-16T23:50:44.825Z,96538.72
2023-05-16T23:53:14.159Z,96539.88
2023-05-16T23:55:42.582Z,96540.69
2023-05-16T23:58:11.936Z,96537.97
